createdAt,value
2018-11-12T00:01:20.244Z,24.53
2018-11-12T00:03:55.250Z,26.37
2018-11-12T00:06:29.780Z,27.47
2018-11-12T00:09:05.356Z,25.67
2018-11-12T00:11:39.973Z,24.67
2018-11-12T00:14:14.932Z,25.23
2018-11-12T00:16:49.892Z,24.03
2018-11-12T00:19:24.520Z,24.70
2018-11-12T00:21:59.070Z,23.93
2018-11-12T00:24:34.350Z,24.10
2018-11-12T00:27:08.754Z,25.37
2018-11-12T00:29:43.413Z,23.03
2018-11-12T00:32:18.112Z,23.20
2018-11-12T00:34:53.084Z,22.83
2018-11-12T00:37:27.905Z,22.87
2018-11-12T00:40:03.107Z,22.27
2018-11-12T00:42:38.646Z,20.87
2018-11-12T00:45:13.193Z,22.67
2018-11-12T00:47:50.073Z,21.83
2018-11-12T00:50:24.809Z,22.27
2018-11-12T00:52:59.505Z,20.20
2018-11-12T00:55:34.133Z,21.53
2018-11-12T00:58:09.353Z,20.80
2018-11-12T01:00:44.440Z,19.83
2018-11-12T01:03:18.893Z,20.60
2018-11-12T01:05:53.792Z,19.67
2018-11-12T01:08:28.759Z,19.30
2018-11-12T01:11:03.817Z,20.03
2018-11-12T01:13:38.565Z,19.70
2018-11-12T01:16:13.258Z,19.40
2018-11-12T01:18:48.293Z,19.20
2018-11-12T01:21:22.560Z,19.57
2018-11-12T01:23:56.838Z,19.40
2018-11-12T01:26:31.137Z,18.97
2018-11-12T01:29:06.476Z,19.37
2018-11-12T01:31:41.337Z,18.43
2018-11-12T01:34:16.046Z,19.13
2018-11-12T01:36:50.817Z,18.20
2018-11-12T01:39:25.329Z,18.77
2018-11-12T01:42:00.771Z,18.17
2018-11-12T01:44:35.417Z,18.47
2018-11-12T01:47:09.845Z,20.20
2018-11-12T01:49:44.186Z,18.73
2018-11-12T01:52:18.577Z,18.67
2018-11-12T01:54:52.925Z,18.93
2018-11-12T01:57:27.756Z,19.07
2018-11-12T02:00:02.255Z,18.33
2018-11-12T02:02:37.341Z,19.80
2018-11-12T02:05:12.383Z,20.70
2018-11-12T02:07:47.384Z,20.83
2018-11-12T02:10:21.948Z,19.13
2018-11-12T02:12:56.608Z,21.30
2018-11-12T02:15:31.160Z,20.13
2018-11-12T02:18:05.836Z,20.70
2018-11-12T02:20:40.549Z,20.23
2018-11-12T02:23:15.435Z,19.67
2018-11-12T02:25:50.207Z,20.37
2018-11-12T02:28:24.566Z,19.80
2018-11-12T02:30:59.314Z,19.77
2018-11-12T02:33:33.757Z,19.23
2018-11-12T02:36:08.429Z,19.10
2018-11-12T02:38:43.134Z,19.93
2018-11-12T02:41:17.757Z,20.33
2018-11-12T02:43:52.173Z,19.70
2018-11-12T02:46:26.817Z,18.97
2018-11-12T02:49:01.321Z,18.40
2018-11-12T02:51:35.879Z,19.47
2018-11-12T02:54:10.478Z,18.57
2018-11-12T02:56:45.253Z,21.27
2018-11-12T02:59:20.109Z,18.73
2018-11-12T03:01:54.836Z,19.23
2018-11-12T03:04:29.373Z,19.43
2018-11-12T03:07:04.628Z,19.07
2018-11-12T03:09:38.984Z,18.87
2018-11-12T03:12:14.246Z,18.30
2018-11-12T03:14:48.653Z,19.57
2018-11-12T03:17:23.509Z,19.13
2018-11-12T03:19:58.056Z,19.90
2018-11-12T03:22:32.561Z,19.57
2018-11-12T03:25:08.106Z,18.53
2018-11-12T03:27:43.316Z,18.93
2018-11-12T03:30:23.840Z,19.13
2018-11-12T03:32:58.703Z,19.80
2018-11-12T03:35:33.652Z,19.90
2018-11-12T03:38:08.620Z,19.00
2018-11-12T03:40:43.240Z,19.73
2018-11-12T03:43:17.693Z,19.50
2018-11-12T03:45:52.248Z,18.83
2018-11-12T03:48:26.740Z,19.07
2018-11-12T03:51:01.369Z,20.23
2018-11-12T03:53:36.340Z,18.40
2018-11-12T03:56:11.434Z,18.93
2018-11-12T03:58:47.721Z,19.73
2018-11-12T04:01:22.369Z,19.87
2018-11-12T04:03:57.468Z,18.03
2018-11-12T04:06:31.931Z,18.83
2018-11-12T04:09:07.339Z,18.50
2018-11-12T04:11:46.616Z,18.33
2018-11-12T04:14:21.044Z,17.80
2018-11-12T04:16:56.328Z,18.03
2018-11-12T04:19:30.990Z,17.03
2018-11-12T04:22:05.755Z,17.10
2018-11-12T04:24:40.480Z,17.43
2018-11-12T04:27:14.763Z,16.43
2018-11-12T04:29:49.548Z,16.17
2018-11-12T04:32:23.993Z,16.20
2018-11-12T04:34:58.332Z,16.53
2018-11-12T04:37:32.768Z,16.87
2018-11-12T04:40:12.112Z,15.17
2018-11-12T04:42:47.445Z,16.10
2018-11-12T04:45:23.252Z,15.33
2018-11-12T04:47:58.192Z,15.40
2018-11-12T04:50:32.801Z,15.73
2018-11-12T04:53:07.220Z,14.77
2018-11-12T04:55:41.900Z,14.90
2018-11-12T04:58:16.721Z,15.33
2018-11-12T05:00:51.884Z,15.50
2018-11-12T05:03:26.205Z,14.57
2018-11-12T05:06:01.097Z,14.97
2018-11-12T05:08:35.393Z,14.07
2018-11-12T05:11:09.760Z,14.03
2018-11-12T05:13:44.421Z,14.47
2018-11-12T05:16:19.240Z,14.33
2018-11-12T05:18:53.929Z,14.47
2018-11-12T05:21:28.477Z,14.60
2018-11-12T05:24:03.084Z,13.87
2018-11-12T05:26:37.749Z,13.57
2018-11-12T05:29:12.178Z,14.80
2018-11-12T05:31:46.850Z,13.93
2018-11-12T05:34:21.201Z,14.07
2018-11-12T05:36:55.643Z,13.57
2018-11-12T05:39:30.485Z,13.70
2018-11-12T05:42:05.848Z,14.50
2018-11-12T05:44:40.532Z,14.47
2018-11-12T05:47:15.393Z,14.20
2018-11-12T05:49:50.380Z,14.03
2018-11-12T05:52:24.945Z,13.93
2018-11-12T05:54:59.678Z,13.53
2018-11-12T05:57:34.242Z,13.67
2018-11-12T06:00:10.026Z,13.50
2018-11-12T06:02:44.917Z,13.30
2018-11-12T06:05:19.482Z,12.63
2018-11-12T06:07:54.594Z,11.93
2018-11-12T06:10:30.285Z,13.00
2018-11-12T06:13:04.876Z,12.33
2018-11-12T06:15:39.400Z,12.77
2018-11-12T06:18:14.040Z,12.40
2018-11-12T06:20:48.552Z,11.53
2018-11-12T06:23:23.665Z,11.73
2018-11-12T06:25:58.613Z,12.00
2018-11-12T06:28:33.228Z,11.87
2018-11-12T06:31:08.233Z,12.90
2018-11-12T06:33:42.686Z,12.03
2018-11-12T06:36:17.535Z,12.27
2018-11-12T06:38:52.561Z,11.33
2018-11-12T06:41:27.104Z,11.60
2018-11-12T06:44:01.446Z,11.67
2018-11-12T06:46:36.125Z,11.80
2018-11-12T06:49:10.504Z,11.00
2018-11-12T06:51:45.079Z,11.60
2018-11-12T06:54:19.508Z,11.43
2018-11-12T06:56:53.954Z,11.93
2018-11-12T06:59:28.436Z,11.97
2018-11-12T07:02:02.692Z,11.93
2018-11-12T07:04:37.140Z,11.10
2018-11-12T07:07:11.606Z,11.13
2018-11-12T07:09:46.118Z,11.50
2018-11-12T07:12:20.939Z,11.03
2018-11-12T07:14:55.399Z,11.13
2018-11-12T07:17:29.700Z,11.37
2018-11-12T07:20:04.101Z,10.83
2018-11-12T07:22:38.877Z,10.70
2018-11-12T07:25:14.001Z,10.73
2018-11-12T07:27:48.752Z,10.03
2018-11-12T07:30:25.547Z,9.93
2018-11-12T07:33:00.426Z,9.30
2018-11-12T07:35:34.928Z,9.57
2018-11-12T07:38:09.388Z,9.20
2018-11-12T07:40:44.569Z,9.30
2018-11-12T07:43:18.878Z,8.83
2018-11-12T07:45:53.446Z,8.10
2018-11-12T07:48:27.952Z,8.50
2018-11-12T07:51:02.568Z,8.60
2018-11-12T07:53:37.353Z,7.63
2018-11-12T07:56:11.946Z,7.00
2018-11-12T07:58:46.705Z,7.10
2018-11-12T08:01:21.356Z,6.23
2018-11-12T08:03:55.869Z,6.90
2018-11-12T08:06:30.549Z,7.60
2018-11-12T08:09:06.979Z,7.03
2018-11-12T08:11:42.198Z,7.70
2018-11-12T08:14:17.168Z,7.00
2018-11-12T08:16:52.324Z,7.73
2018-11-12T08:19:26.990Z,7.80
2018-11-12T08:22:02.288Z,7.13
2018-11-12T08:24:36.901Z,7.20
2018-11-12T08:27:11.530Z,6.87
2018-11-12T08:29:46.217Z,6.40
2018-11-12T08:32:21.621Z,6.20
2018-11-12T08:34:56.168Z,5.90
2018-11-12T08:37:31.149Z,5.90
2018-11-12T08:40:07.923Z,6.00
2018-11-12T08:42:43.724Z,5.60
2018-11-12T08:45:18.170Z,5.53
2018-11-12T08:47:54.504Z,5.30
2018-11-12T08:50:29.272Z,5.10
2018-11-12T08:53:04.441Z,5.00
2018-11-12T08:55:39.098Z,4.90
2018-11-12T08:58:14.879Z,5.07
2018-11-12T09:00:48.765Z,4.53
2018-11-12T09:03:23.772Z,4.43
2018-11-12T09:05:58.598Z,4.53
2018-11-12T09:08:33.280Z,4.27
2018-11-12T09:11:08.580Z,3.93
2018-11-12T09:13:44.227Z,4.23
2018-11-12T09:16:19.199Z,4.00
2018-11-12T09:18:53.565Z,4.03
2018-11-12T09:21:28.188Z,3.70
2018-11-12T09:24:02.927Z,4.20
2018-11-12T09:26:38.156Z,4.30
2018-11-12T09:29:12.703Z,4.17
2018-11-12T09:31:47.962Z,3.80
2018-11-12T09:34:22.849Z,4.10
2018-11-12T09:36:57.888Z,4.73
2018-11-12T09:39:32.525Z,4.03
2018-11-12T09:42:07.537Z,3.80
2018-11-12T09:44:42.296Z,4.00
2018-11-12T09:47:16.812Z,3.80
2018-11-12T09:49:51.509Z,3.80
2018-11-12T09:52:26.255Z,4.23
2018-11-12T09:55:00.851Z,4.00
2018-11-12T09:57:35.552Z,4.17
2018-11-12T10:00:13.216Z,3.73
2018-11-12T10:02:50.136Z,3.80
2018-11-12T10:05:24.863Z,4.20
2018-11-12T10:08:04.016Z,4.03
2018-11-12T10:10:43.652Z,4.40
2018-11-12T10:13:22.212Z,4.50
2018-11-12T10:15:58.020Z,4.00
2018-11-12T10:18:29.978Z,4.20
2018-11-12T10:21:04.970Z,4.10
2018-11-12T10:23:39.386Z,4.43
2018-11-12T10:26:14.207Z,4.33
2018-11-12T10:28:48.661Z,4.37
2018-11-12T10:31:23.708Z,4.10
2018-11-12T10:33:58.189Z,4.43
2018-11-12T10:36:33.504Z,4.67
2018-11-12T10:39:09.473Z,4.17
2018-11-12T10:41:43.844Z,4.30
2018-11-12T10:44:18.289Z,4.17
2018-11-12T10:46:53.373Z,3.90
2018-11-12T10:49:27.885Z,4.27
2018-11-12T10:52:02.329Z,4.10
2018-11-12T10:54:36.850Z,4.00
2018-11-12T10:57:11.772Z,3.80
2018-11-12T10:59:46.281Z,3.60
2018-11-12T11:02:26.516Z,4.00
2018-11-12T11:05:01.758Z,4.40
2018-11-12T11:07:36.384Z,3.73
2018-11-12T11:10:10.744Z,3.97
2018-11-12T11:12:47.298Z,3.50
2018-11-12T11:15:22.322Z,3.33
2018-11-12T11:20:40.308Z,3.30
2018-11-12T11:23:14.909Z,3.77
2018-11-12T11:25:49.392Z,3.13
2018-11-12T11:28:24.374Z,3.53
2018-11-12T11:30:59.387Z,3.37
2018-11-12T11:33:34.140Z,3.23
2018-11-12T11:36:08.413Z,3.00
2018-11-12T11:38:42.977Z,3.10
2018-11-12T11:41:17.525Z,3.00
2018-11-12T11:43:51.935Z,2.60
2018-11-12T11:46:26.672Z,2.40
2018-11-12T11:49:01.218Z,2.70
2018-11-12T11:51:36.639Z,2.23
2018-11-12T11:54:11.768Z,2.50
2018-11-12T11:56:46.292Z,2.47
2018-11-12T11:59:20.849Z,2.57
2018-11-12T12:01:55.800Z,2.20
2018-11-12T12:04:30.749Z,2.27
2018-11-12T12:07:05.846Z,2.40
2018-11-12T12:09:40.669Z,2.67
2018-11-12T12:12:15.544Z,2.37
2018-11-12T12:14:50.413Z,2.40
2018-11-12T12:17:24.992Z,2.50
2018-11-12T12:19:59.659Z,2.47
2018-11-12T12:22:34.173Z,2.77
2018-11-12T12:25:10.725Z,2.20
2018-11-12T12:27:46.273Z,2.27
2018-11-12T12:30:23.323Z,2.20
2018-11-12T12:32:58.668Z,2.20
2018-11-12T12:35:33.879Z,2.00
2018-11-12T12:38:08.777Z,2.03
2018-11-12T12:40:43.469Z,2.10
2018-11-12T12:43:17.819Z,1.80
2018-11-12T12:45:52.391Z,1.80
2018-11-12T12:48:27.405Z,1.97
2018-11-12T12:51:01.887Z,1.90
2018-11-12T12:53:36.183Z,1.80
2018-11-12T12:56:10.795Z,1.93
2018-11-12T12:58:46.036Z,1.77
2018-11-12T13:01:20.583Z,1.80
2018-11-12T13:03:55.196Z,1.97
2018-11-12T13:06:29.937Z,2.00
2018-11-12T13:09:07.664Z,1.93
2018-11-12T13:11:42.271Z,1.83
2018-11-12T13:14:17.059Z,1.70
2018-11-12T13:16:52.269Z,1.90
2018-11-12T13:19:26.819Z,1.87
2018-11-12T13:22:01.539Z,2.10
2018-11-12T13:24:36.501Z,2.17
2018-11-12T13:27:11.085Z,1.93
2018-11-12T13:29:45.949Z,2.40
2018-11-12T13:32:20.545Z,2.00
2018-11-12T13:34:54.847Z,2.10
2018-11-12T13:37:29.141Z,2.10
2018-11-12T13:40:04.092Z,2.00
2018-11-12T13:42:38.598Z,2.20
2018-11-12T13:45:13.235Z,2.43
2018-11-12T13:47:48.247Z,2.70
2018-11-12T13:50:25.304Z,2.23
2018-11-12T13:53:01.294Z,2.30
2018-11-12T13:55:35.941Z,2.40
2018-11-12T13:58:10.388Z,2.30
2018-11-12T14:00:45.015Z,2.47
2018-11-12T14:03:19.528Z,8.70
2018-11-12T14:05:54.216Z,9.80
2018-11-12T14:08:29.173Z,10.77
2018-11-12T14:11:03.932Z,11.93
2018-11-12T14:13:38.900Z,10.90
2018-11-12T14:16:13.222Z,12.93
2018-11-12T14:18:48.412Z,12.73
2018-11-12T14:21:23.004Z,12.77
2018-11-12T14:23:57.852Z,12.83
2018-11-12T14:26:32.749Z,13.17
2018-11-12T14:29:08.023Z,13.27
2018-11-12T14:31:42.963Z,13.27
2018-11-12T14:34:17.497Z,13.93
2018-11-12T14:36:52.522Z,14.37
2018-11-12T14:39:26.953Z,14.67
2018-11-12T14:42:02.076Z,14.30
2018-11-12T14:44:37.309Z,14.17
2018-11-12T14:47:11.786Z,15.30
2018-11-12T14:49:46.108Z,14.30
2018-11-12T14:52:21.246Z,14.90
2018-11-12T14:54:55.985Z,15.40
2018-11-12T14:57:31.062Z,16.00
2018-11-12T15:00:15.540Z,16.07
2018-11-12T15:02:51.885Z,17.33
2018-11-12T15:05:26.832Z,16.70
2018-11-12T15:08:01.910Z,16.23
2018-11-12T15:10:36.337Z,17.20
2018-11-12T15:13:10.916Z,16.97
2018-11-12T15:15:45.375Z,17.20
2018-11-12T15:18:20.168Z,18.43
2018-11-12T15:20:54.958Z,17.60
2018-11-12T15:23:30.068Z,17.73
2018-11-12T15:26:05.388Z,17.83
2018-11-12T15:28:39.968Z,16.90
2018-11-12T15:31:14.809Z,17.90
2018-11-12T15:33:49.628Z,18.30
2018-11-12T15:36:24.189Z,18.87
2018-11-12T15:38:58.757Z,18.33
2018-11-12T15:41:33.192Z,18.77
2018-11-12T15:44:08.175Z,19.33
2018-11-12T15:46:42.829Z,18.63
2018-11-12T15:49:17.697Z,19.80
2018-11-12T15:51:52.286Z,19.27
2018-11-12T15:54:27.457Z,20.47
2018-11-12T15:57:01.981Z,19.90
2018-11-12T15:59:37.063Z,20.23
2018-11-12T16:02:11.681Z,20.27
2018-11-12T16:04:46.447Z,19.90
2018-11-12T16:07:20.968Z,19.97
2018-11-12T16:09:55.830Z,19.03
2018-11-12T16:12:30.863Z,20.23
2018-11-12T16:15:05.725Z,19.73
2018-11-12T16:17:40.543Z,19.37
2018-11-12T16:20:22.289Z,19.53
2018-11-12T16:22:58.080Z,20.10
2018-11-12T16:25:33.212Z,20.47
2018-11-12T16:28:07.876Z,22.40
2018-11-12T16:30:42.792Z,21.53
2018-11-12T16:33:17.152Z,22.80
2018-11-12T16:35:51.464Z,22.70
2018-11-12T16:38:25.985Z,23.50
2018-11-12T16:41:03.188Z,22.60
2018-11-12T16:44:45.043Z,21.90
2018-11-12T16:47:19.966Z,21.50
2018-11-12T16:49:54.516Z,21.03
2018-11-12T16:52:29.101Z,22.60
2018-11-12T16:55:04.350Z,22.80
2018-11-12T16:57:38.921Z,23.43
2018-11-12T17:00:15.281Z,23.63
2018-11-12T17:02:49.938Z,22.37
2018-11-12T17:05:25.130Z,22.97
2018-11-12T17:07:59.829Z,22.47
2018-11-12T17:10:44.102Z,21.80
2018-11-12T17:13:21.534Z,22.10
2018-11-12T17:15:57.413Z,23.57
2018-11-12T17:18:31.876Z,23.90
2018-11-12T17:21:07.624Z,25.80
2018-11-12T17:23:42.755Z,25.00
2018-11-12T17:26:17.309Z,25.63
2018-11-12T17:28:51.987Z,25.83
2018-11-12T17:31:26.492Z,23.80
2018-11-12T17:34:01.221Z,23.43
2018-11-12T17:36:35.950Z,26.20
2018-11-12T17:39:11.571Z,26.53
2018-11-12T17:41:46.015Z,24.23
2018-11-12T17:44:20.512Z,24.43
2018-11-12T17:46:54.938Z,23.17
2018-11-12T17:49:29.880Z,25.90
2018-11-12T17:52:04.453Z,24.77
2018-11-12T17:54:39.246Z,25.67
2018-11-12T17:57:13.728Z,25.53
2018-11-12T17:59:48.406Z,25.30
2018-11-12T18:02:23.072Z,24.43
2018-11-12T18:04:58.257Z,24.80
2018-11-12T18:07:33.443Z,24.70
2018-11-12T18:10:11.025Z,25.27
2018-11-12T18:12:46.181Z,25.23
2018-11-12T18:15:21.766Z,24.90
2018-11-12T18:17:56.786Z,26.30
2018-11-12T18:20:31.433Z,26.53
2018-11-12T18:23:06.471Z,27.67
2018-11-12T18:25:41.097Z,28.13
2018-11-12T18:28:15.870Z,26.63
2018-11-12T18:30:50.561Z,25.67
2018-11-12T18:33:25.021Z,27.13
2018-11-12T18:35:59.666Z,26.47
2018-11-12T18:38:34.082Z,26.37
2018-11-12T18:41:08.380Z,25.60
2018-11-12T18:43:43.144Z,26.70
2018-11-12T18:46:18.125Z,29.47
2018-11-12T18:48:53.128Z,30.23
2018-11-12T18:51:28.010Z,31.83
2018-11-12T18:54:02.390Z,32.47
2018-11-12T18:56:37.097Z,31.73
2018-11-12T18:59:11.697Z,30.57
2018-11-12T19:01:46.599Z,30.30
2018-11-12T19:04:21.133Z,28.93
2018-11-12T19:06:55.713Z,29.20
2018-11-12T19:09:30.055Z,30.73
2018-11-12T19:12:05.076Z,29.13
2018-11-12T19:14:39.441Z,29.00
2018-11-12T19:17:15.467Z,28.67
2018-11-12T19:19:49.824Z,28.20
2018-11-12T19:22:25.487Z,27.50
2018-11-12T19:24:59.812Z,29.43
2018-11-12T19:27:34.220Z,29.00
2018-11-12T19:30:11.148Z,29.73
2018-11-12T19:32:47.071Z,32.43
2018-11-12T19:35:23.225Z,30.10
2018-11-12T19:37:58.569Z,29.00
2018-11-12T19:40:33.627Z,31.20
2018-11-12T19:43:08.698Z,29.33
2018-11-12T19:45:58.222Z,31.67
2018-11-12T19:48:33.736Z,30.17
2018-11-12T19:51:09.464Z,30.97
2018-11-12T19:53:44.080Z,29.53
2018-11-12T19:56:18.485Z,30.23
2018-11-12T19:58:53.133Z,30.73
2018-11-12T20:01:28.249Z,29.53
2018-11-12T20:04:03.067Z,30.70
2018-11-12T20:06:38.053Z,29.10
2018-11-12T20:09:13.372Z,28.83
2018-11-12T20:11:47.908Z,28.93
2018-11-12T20:14:22.597Z,29.07
2018-11-12T20:16:57.144Z,29.37
2018-11-12T20:19:32.109Z,28.43
2018-11-12T20:22:06.884Z,29.90
2018-11-12T20:24:42.717Z,30.27
2018-11-12T20:27:17.073Z,30.87
2018-11-12T20:29:51.660Z,34.17
2018-11-12T20:32:26.282Z,31.70
2018-11-12T20:35:01.100Z,35.00
2018-11-12T20:37:36.577Z,30.57
2018-11-12T20:40:14.222Z,30.77
2018-11-12T20:42:49.684Z,30.17
2018-11-12T20:45:24.837Z,30.80
2018-11-12T20:48:00.224Z,29.17
2018-11-12T20:50:34.948Z,31.10
2018-11-12T20:53:09.723Z,33.07
2018-11-12T20:55:44.143Z,30.33
2018-11-12T20:58:18.825Z,27.07
2018-11-12T21:00:55.425Z,24.60
2018-11-12T21:03:30.200Z,24.53
2018-11-12T21:06:06.958Z,26.27
2018-11-12T21:08:41.356Z,22.63
2018-11-12T21:11:16.167Z,22.63
2018-11-12T21:13:50.742Z,21.60
2018-11-12T21:16:25.446Z,21.60
2018-11-12T21:18:59.797Z,20.90
2018-11-12T21:21:34.249Z,21.27
2018-11-12T21:24:09.412Z,20.80
2018-11-12T21:26:43.849Z,19.27
2018-11-12T21:29:18.289Z,18.57
2018-11-12T21:31:53.976Z,18.73
2018-11-12T21:34:28.494Z,18.20
2018-11-12T21:37:03.497Z,18.07
2018-11-12T21:39:38.209Z,18.40
2018-11-12T21:42:12.756Z,18.73
2018-11-12T21:44:47.253Z,17.50
2018-11-12T21:47:21.635Z,16.60
2018-11-12T21:49:56.097Z,16.67
2018-11-12T21:52:31.214Z,15.67
2018-11-12T21:55:05.988Z,15.90
2018-11-12T21:57:41.717Z,15.33
2018-11-12T22:00:21.956Z,15.60
2018-11-12T22:03:00.889Z,15.80
2018-11-12T22:05:35.841Z,14.40
2018-11-12T22:08:10.556Z,14.63
2018-11-12T22:10:44.862Z,14.47
2018-11-12T22:13:19.276Z,14.80
2018-11-12T22:15:54.045Z,14.57
2018-11-12T22:18:28.563Z,14.20
2018-11-12T22:21:03.738Z,14.17
2018-11-12T22:23:38.946Z,14.20
2018-11-12T22:26:13.365Z,13.53
2018-11-12T22:28:48.087Z,14.00
2018-11-12T22:31:22.877Z,13.77
2018-11-12T22:33:57.307Z,13.93
2018-11-12T22:36:31.824Z,13.20
2018-11-12T22:39:08.188Z,12.67
2018-11-12T22:41:42.467Z,12.90
2018-11-12T22:44:17.181Z,13.27
2018-11-12T22:46:51.500Z,12.93
2018-11-12T22:49:26.264Z,12.40
2018-11-12T22:52:00.756Z,12.20
2018-11-12T22:54:35.166Z,12.90
2018-11-12T22:57:09.930Z,12.70
2018-11-12T22:59:44.458Z,12.20
2018-11-12T23:02:19.820Z,12.10
2018-11-12T23:04:54.436Z,12.00
2018-11-12T23:07:29.044Z,12.27
2018-11-12T23:10:04.008Z,12.13
2018-11-12T23:12:39.259Z,12.20
2018-11-12T23:15:18.311Z,12.50
2018-11-12T23:17:52.744Z,12.33
2018-11-12T23:20:28.552Z,11.63
2018-11-12T23:23:03.155Z,11.50
2018-11-12T23:25:37.924Z,11.93
2018-11-12T23:28:12.668Z,11.93
2018-11-12T23:30:47.365Z,11.80
2018-11-12T23:33:21.807Z,11.67
2018-11-12T23:35:56.110Z,11.57
2018-11-12T23:38:31.109Z,10.80
2018-11-12T23:41:05.732Z,11.30
2018-11-12T23:43:40.227Z,11.10
2018-11-12T23:46:15.042Z,11.73
2018-11-12T23:48:49.917Z,11.10
2018-11-12T23:51:24.344Z,10.80
2018-11-12T23:53:59.105Z,11.13
2018-11-12T23:56:33.689Z,11.10
2018-11-12T23:59:08.553Z,11.73
